Time;durP1;ratioP1;P1;durP2;ratioP2;P2;SDS_P1;SDS_P2;PMS_P1;PMS_P2;Temp;Humidity;BMP_temperature;BMP_pressure;BME280_temperature;BME280_humidity;BME280_pressure;Samples;Min_cycle;Max_cycle;Signal;HPM_P1;HPM_P2
2022/04/10 00:00:43;;;;;;;8.85;4.05;;;;;;;14.08;40.07;93786.34;5029992;28;20222;-60
2022/04/10 00:03:09;;;;;;;8.75;4.68;;;;;;;14.05;40.41;93793.88;5032264;28;20374;-65
2022/04/10 00:05:34;;;;;;;10.13;4.07;;;;;;;14.02;40.13;93787.19;5039235;28;20290;-63
2022/04/10 00:08:00;;;;;;;7.80;3.92;;;;;;;14.02;39.87;93773.97;5039905;28;20242;-63
2022/04/10 00:10:25;;;;;;;5.95;3.92;;;;;;;14.08;39.64;93770.50;5036186;28;20273;-62
2022/04/10 00:12:51;;;;;;;5.45;3.33;;;;;;;14.13;39.87;93773.34;5039383;28;20217;-67
2022/04/10 00:15:17;;;;;;;7.22;4.03;;;;;;;14.08;39.44;93761.75;5037201;28;20267;-62
2022/04/10 00:17:42;;;;;;;7.93;3.53;;;;;;;14.11;39.45;93769.28;5036209;28;20213;-61
2022/04/10 00:20:11;;;;;;;10.73;4.05;;;;;;;14.03;39.59;93764.19;5044445;28;20340;-63
2022/04/10 00:22:48;;;;;;;9.35;4.15;;;;;;;14.02;39.78;93758.09;5006625;28;20287;-63
2022/04/10 00:25:18;;;;;;;8.15;4.18;;;;;;;13.89;40.73;93760.75;5030666;28;20230;-63
2022/04/10 00:27:44;;;;;;;5.82;3.72;;;;;;;13.93;40.09;93772.56;5029752;28;20230;-64
2022/04/10 00:30:12;;;;;;;5.80;4.03;;;;;;;13.84;40.21;93773.75;5034649;28;20210;-65
2022/04/10 00:32:38;;;;;;;9.50;4.25;;;;;;;13.83;40.26;93766.84;5037064;28;20209;-64
2022/04/10 00:35:05;;;;;;;5.82;3.75;;;;;;;13.65;40.47;93757.66;5024868;28;20279;-65
2022/04/10 00:37:32;;;;;;;8.68;4.00;;;;;;;13.73;40.70;93766.44;5032118;28;20223;-62
2022/04/10 00:39:57;;;;;;;10.93;3.95;;;;;;;13.73;40.52;93769.06;5034528;28;20218;-63
2022/04/10 00:42:29;;;;;;;7.35;3.40;;;;;;;13.68;40.33;93765.22;5039036;28;20248;-63
2022/04/10 00:44:55;;;;;;;6.53;3.35;;;;;;;13.71;40.36;93757.88;5037194;28;21471;-60
2022/04/10 00:47:20;;;;;;;8.45;3.75;;;;;;;13.63;40.38;93765.00;5037652;28;20293;-65
2022/04/10 00:49:46;;;;;;;9.40;4.30;;;;;;;13.58;40.83;93769.25;5037845;28;20225;-60
2022/04/10 00:52:12;;;;;;;8.93;4.43;;;;;;;13.34;41.18;93762.69;5037733;28;20229;-67
2022/04/10 00:54:38;;;;;;;12.60;5.13;;;;;;;13.30;41.17;93761.47;5033840;28;20229;-63
2022/04/10 00:57:05;;;;;;;9.65;4.82;;;;;;;13.42;40.64;93752.78;5008688;28;20215;-60
2022/04/10 00:59:31;;;;;;;9.95;4.80;;;;;;;13.42;40.92;93750.13;5019310;28;20221;-64
2022/04/10 01:01:56;;;;;;;9.05;4.60;;;;;;;13.27;41.20;93740.75;5019032;28;20225;-66
2022/04/10 01:04:22;;;;;;;9.13;5.20;;;;;;;13.33;41.08;93750.50;5028016;28;20228;-63
2022/04/10 01:06:49;;;;;;;6.28;4.32;;;;;;;13.42;41.60;93741.41;5023815;28;20693;-63
2022/04/10 01:09:15;;;;;;;8.25;5.13;;;;;;;13.36;41.78;93728.97;5021244;28;20202;-63
2022/04/10 01:11:41;;;;;;;12.35;4.63;;;;;;;13.25;41.88;93723.25;5019350;28;20339;-63
2022/04/10 01:14:08;;;;;;;10.07;5.40;;;;;;;13.33;41.58;93726.75;5018233;28;20221;-63
2022/04/10 01:16:35;;;;;;;8.55;5.30;;;;;;;13.36;41.17;93713.16;5021034;28;20247;-65
2022/04/10 01:19:04;;;;;;;12.30;5.97;;;;;;;13.43;41.25;93720.06;5019586;28;20234;-62
2022/04/10 01:21:32;;;;;;;9.95;5.30;;;;;;;13.40;41.48;93719.66;5019082;28;20218;-62
2022/04/10 01:23:58;;;;;;;9.40;5.50;;;;;;;13.39;41.28;93713.56;5020423;28;20207;-65
2022/04/10 01:26:27;;;;;;;12.20;6.38;;;;;;;13.22;41.60;93713.09;5035714;28;20224;-64
2022/04/10 01:28:58;;;;;;;10.65;5.63;;;;;;;13.16;42.40;93711.25;5035056;28;20225;-66
2022/04/10 01:31:24;;;;;;;10.60;5.53;;;;;;;13.22;42.11;93718.38;5040700;28;20234;-61
2022/04/10 01:33:50;;;;;;;10.32;5.68;;;;;;;13.21;42.25;93722.03;5039777;28;20214;-63
2022/04/10 01:36:17;;;;;;;9.20;5.93;;;;;;;13.29;42.01;93717.63;5036839;28;20508;-62
2022/04/10 01:38:44;;;;;;;9.73;4.97;;;;;;;13.09;42.69;93710.41;5044898;28;20222;-64
2022/04/10 01:41:13;;;;;;;9.95;5.60;;;;;;;13.02;42.68;93707.78;5042327;28;20217;-61
2022/04/10 01:43:49;;;;;;;12.00;5.18;;;;;;;13.04;43.45;93715.47;5041165;28;20222;-62
2022/04/10 01:46:15;;;;;;;13.50;6.03;;;;;;;12.98;43.37;93722.34;5036628;28;20702;-67
2022/04/10 01:48:41;;;;;;;12.13;6.30;;;;;;;12.86;43.19;93731.88;5026130;28;20225;-67
2022/04/10 01:51:08;;;;;;;9.50;5.72;;;;;;;12.74;43.25;93739.50;5037279;28;20214;-60
2022/04/10 01:53:34;;;;;;;9.75;5.13;;;;;;;12.60;43.50;93735.19;5039810;28;20210;-62
2022/04/10 01:56:01;;;;;;;11.45;5.80;;;;;;;12.59;43.89;93738.84;5034343;28;20268;-65
2022/04/10 01:58:26;;;;;;;10.43;5.13;;;;;;;12.67;43.20;93732.56;5041289;28;20307;-63
2022/04/10 02:00:52;;;;;;;9.23;5.35;;;;;;;12.70;42.66;93719.03;5035352;28;20233;-67
2022/04/10 02:03:17;;;;;;;7.75;5.68;;;;;;;12.63;43.55;93726.06;5034915;28;20208;-63
2022/04/10 02:05:43;;;;;;;9.38;5.40;;;;;;;12.67;43.56;93733.41;5040299;28;20205;-62
2022/04/10 02:08:08;;;;;;;9.18;5.80;;;;;;;12.74;43.19;93721.03;5037484;28;20232;-63
2022/04/10 02:10:34;;;;;;;12.18;5.68;;;;;;;12.68;43.00;93711.28;5035324;28;20225;-59
2022/04/10 02:13:00;;;;;;;11.23;6.15;;;;;;;12.75;43.48;93721.84;5036022;28;20327;-62
2022/04/10 02:15:26;;;;;;;9.40;5.30;;;;;;;12.64;43.66;93714.50;5038223;28;20233;-64
2022/04/10 02:17:51;;;;;;;9.73;5.47;;;;;;;12.73;43.56;93723.91;5033139;28;20218;-61
2022/04/10 02:20:17;;;;;;;9.07;5.45;;;;;;;12.78;43.66;93724.94;5037181;28;20222;-63
2022/04/10 02:22:43;;;;;;;9.77;5.20;;;;;;;12.77;43.44;93715.38;5039673;28;20224;-66
2022/04/10 02:25:09;;;;;;;9.60;5.13;;;;;;;12.70;43.48;93729.56;5035692;28;20225;-64
2022/04/10 02:27:34;;;;;;;9.27;5.05;;;;;;;12.66;43.53;93730.97;5034313;28;20269;-62
2022/04/10 02:30:00;;;;;;;12.07;5.85;;;;;;;12.77;43.91;93725.94;5041250;28;20201;-63
2022/04/10 02:32:25;;;;;;;10.98;5.20;;;;;;;12.68;44.00;93719.19;5037886;28;20222;-64
2022/04/10 02:34:51;;;;;;;11.32;5.25;;;;;;;12.85;43.69;93724.94;5033877;28;20233;-62
2022/04/10 02:37:16;;;;;;;10.35;5.63;;;;;;;12.91;43.84;93736.53;5030363;28;20229;-61
2022/04/10 02:39:42;;;;;;;10.32;5.88;;;;;;;12.89;43.45;93736.75;5034100;28;20226;-60
2022/04/10 02:42:08;;;;;;;8.65;5.53;;;;;;;12.88;43.43;93739.56;5020828;28;20217;-61
2022/04/10 02:44:33;;;;;;;11.27;5.82;;;;;;;12.93;43.27;93739.78;5028895;28;20294;-62
2022/04/10 02:46:59;;;;;;;10.68;5.38;;;;;;;12.94;43.27;93736.97;5021952;28;20234;-62
2022/04/10 02:49:24;;;;;;;8.05;5.55;;;;;;;13.02;43.32;93734.16;5029643;28;20222;-60
2022/04/10 02:51:50;;;;;;;8.50;5.20;;;;;;;12.94;43.42;93730.88;5043663;28;20217;-62
2022/04/10 02:54:18;;;;;;;10.55;5.35;;;;;;;12.94;43.65;93738.81;5036575;28;20217;-62
2022/04/10 02:56:43;;;;;;;9.57;5.18;;;;;;;12.95;43.23;93724.59;5041363;28;20206;-64
2022/04/10 02:59:09;;;;;;;8.30;5.10;;;;;;;12.86;44.05;93720.50;5038390;28;20230;-64
2022/04/10 03:01:35;;;;;;;10.55;5.22;;;;;;;12.81;43.78;93718.44;5038433;28;20225;-64
2022/04/10 03:04:00;;;;;;;11.50;5.35;;;;;;;12.91;43.80;93729.47;5038740;28;20230;-61
2022/04/10 03:06:26;;;;;;;9.35;5.40;;;;;;;12.89;43.78;93733.28;5041075;28;20369;-61
2022/04/10 03:08:52;;;;;;;9.30;4.70;;;;;;;12.92;44.40;93738.19;5039535;28;20229;-61
2022/04/10 03:11:18;;;;;;;8.68;5.43;;;;;;;12.99;44.02;93733.72;5038036;28;20228;-61
2022/04/10 03:13:45;;;;;;;12.27;5.57;;;;;;;12.97;43.70;93741.03;5035959;28;20222;-64
2022/04/10 03:16:10;;;;;;;8.93;5.10;;;;;;;12.90;43.98;93748.91;5026782;28;20341;-62
2022/04/10 03:18:36;;;;;;;7.22;5.05;;;;;;;12.93;44.00;93753.78;5020159;28;20259;-60
2022/04/10 03:21:03;;;;;;;8.45;5.07;;;;;;;12.92;44.60;93756.66;5014444;28;20207;-59
2022/04/10 03:23:28;;;;;;;11.98;5.03;;;;;;;12.96;44.91;93763.13;5018587;28;20214;-63
2022/04/10 03:25:54;;;;;;;9.88;5.40;;;;;;;12.98;44.61;93763.75;5019883;28;20222;-63
2022/04/10 03:28:19;;;;;;;11.02;5.38;;;;;;;12.86;45.03;93765.34;5012791;28;20221;-63
2022/04/10 03:30:45;;;;;;;8.27;5.10;;;;;;;12.81;45.47;93747.47;5016382;28;20219;-63
2022/04/10 03:33:11;;;;;;;8.43;5.13;;;;;;;12.90;45.76;93748.91;5015157;28;20225;-63
2022/04/10 03:35:36;;;;;;;11.90;5.82;;;;;;;12.91;46.03;93762.91;5017760;28;20195;-62
2022/04/10 03:38:02;;;;;;;9.38;5.47;;;;;;;12.98;45.06;93750.56;5022517;28;20228;-63
2022/04/10 03:40:28;;;;;;;10.40;5.20;;;;;;;13.03;46.30;93753.44;5014861;28;20253;-60
2022/04/10 03:42:53;;;;;;;12.05;5.88;;;;;;;12.96;47.60;93769.25;5015044;28;20226;-60
2022/04/10 03:45:19;;;;;;;9.88;5.68;;;;;;;12.92;47.75;93770.66;5015121;28;20202;-60
2022/04/10 03:47:47;;;;;;;11.43;6.15;;;;;;;12.97;47.07;93770.88;5016671;28;20438;-60
2022/04/10 03:50:13;;;;;;;10.00;5.53;;;;;;;12.94;47.64;93770.47;5013731;28;20264;-60
2022/04/10 03:52:38;;;;;;;10.35;5.47;;;;;;;12.85;47.01;93755.78;5020869;28;20222;-60
2022/04/10 03:55:04;;;;;;;9.27;5.97;;;;;;;12.93;46.78;93756.44;5020991;28;20268;-61
2022/04/10 03:57:30;;;;;;;9.50;5.07;;;;;;;12.73;46.30;93745.81;5030954;28;20227;-62
2022/04/10 03:59:56;;;;;;;9.60;6.13;;;;;;;12.79;45.10;93771.38;5023434;28;20210;-63
2022/04/10 04:02:24;;;;;;;14.75;6.47;;;;;;;12.75;45.18;93780.72;5036607;28;20233;-62
2022/04/10 04:04:50;;;;;;;11.10;6.28;;;;;;;12.62;45.08;93793.84;5035792;28;20236;-62
2022/04/10 04:07:16;;;;;;;10.55;6.65;;;;;;;12.53;45.02;93798.44;5027265;28;20229;-63
2022/04/10 04:09:42;;;;;;;8.68;6.47;;;;;;;12.67;44.97;93783.53;5016775;28;20221;-63
2022/04/10 04:12:08;;;;;;;9.10;6.72;;;;;;;12.52;45.75;93767.81;5011744;28;20202;-63
2022/04/10 04:14:35;;;;;;;10.73;6.72;;;;;;;12.44;46.39;93796.16;5039377;28;20213;-63
2022/04/10 04:17:00;;;;;;;10.15;5.90;;;;;;;12.46;47.21;93792.31;5023046;28;20610;-67
2022/04/10 04:19:26;;;;;;;9.23;4.90;;;;;;;12.56;47.25;93790.16;5035208;28;20237;-68
2022/04/10 04:21:51;;;;;;;8.13;5.65;;;;;;;12.72;48.15;93806.66;5015786;28;20242;-67
2022/04/10 04:24:17;;;;;;;7.75;6.30;;;;;;;12.70;48.13;93813.97;5022186;28;20211;-67
2022/04/10 04:26:42;;;;;;;8.52;5.72;;;;;;;12.61;49.31;93826.47;5034360;28;20202;-67
2022/04/10 04:29:08;;;;;;;7.78;6.70;;;;;;;12.66;49.27;93821.44;5016609;28;20222;-68
2022/04/10 04:31:33;;;;;;;9.13;6.90;;;;;;;12.58;49.93;93824.22;5020830;28;20235;-62
2022/04/10 04:33:59;;;;;;;8.65;7.38;;;;;;;12.53;50.67;93839.81;5025174;28;20217;-63
2022/04/10 04:36:24;;;;;;;8.70;7.90;;;;;;;12.47;50.50;93835.31;5037802;28;20208;-63
2022/04/10 04:38:49;;;;;;;10.13;8.18;;;;;;;12.38;50.82;93837.28;5035543;28;20201;-64
2022/04/10 04:41:15;;;;;;;11.43;10.32;;;;;;;12.08;52.20;93865.59;5035085;28;20308;-61
2022/04/10 04:43:40;;;;;;;13.93;12.63;;;;;;;12.01;52.82;93864.75;5037602;28;20226;-64
2022/04/10 04:46:06;;;;;;;14.57;13.32;;;;;;;11.68;53.61;93868.66;5037300;28;20316;-64
2022/04/10 04:48:31;;;;;;;15.45;13.85;;;;;;;11.57;54.73;93877.00;5031622;28;20590;-63
2022/04/10 04:50:57;;;;;;;15.05;13.70;;;;;;;11.26;54.73;93874.63;5039163;28;20658;-60
2022/04/10 04:53:23;;;;;;;16.35;14.85;;;;;;;10.71;56.78;93875.91;5039771;28;20225;-61
2022/04/10 04:55:49;;;;;;;17.80;16.10;;;;;;;10.60;56.58;93877.19;5038911;28;20523;-64
2022/04/10 04:58:14;;;;;;;17.73;16.02;;;;;;;10.64;57.03;93898.66;5028741;28;20218;-64
2022/04/10 05:00:40;;;;;;;19.27;17.58;;;;;;;10.54;56.93;93876.09;5022743;28;20280;-64
2022/04/10 05:03:05;;;;;;;16.88;15.43;;;;;;;10.59;57.07;93880.81;5025682;28;20265;-62
2022/04/10 05:05:31;;;;;;;18.25;16.52;;;;;;;10.42;57.39;93880.13;5013602;28;20292;-63
2022/04/10 05:07:56;;;;;;;18.20;16.57;;;;;;;10.34;57.74;93878.44;5020081;28;20237;-64
2022/04/10 05:10:22;;;;;;;17.55;15.95;;;;;;;10.19;58.99;93872.28;5021321;28;20292;-64
2022/04/10 05:12:47;;;;;;;19.17;17.42;;;;;;;10.10;58.91;93879.41;5016818;28;20223;-64
2022/04/10 05:15:13;;;;;;;19.67;17.58;;;;;;;10.04;59.75;93874.84;5016854;28;20207;-64
2022/04/10 05:17:38;;;;;;;18.25;16.63;;;;;;;10.03;59.73;93880.28;5022957;28;20311;-64
2022/04/10 05:20:05;;;;;;;18.80;17.05;;;;;;;10.09;59.25;93876.97;5015004;28;20361;-62
2022/04/10 05:22:30;;;;;;;18.30;16.70;;;;;;;9.99;59.62;93874.56;5016111;28;20304;-66
2022/04/10 05:24:56;;;;;;;19.95;18.23;;;;;;;9.89;59.37;93882.69;5016706;28;20250;-62
2022/04/10 05:27:21;;;;;;;18.37;16.73;;;;;;;9.87;60.42;93887.28;5017294;28;20265;-66
2022/04/10 05:29:47;;;;;;;18.92;17.02;;;;;;;9.95;59.66;93883.78;5018832;28;20341;-59
2022/04/10 05:32:12;;;;;;;19.02;17.23;;;;;;;10.01;59.32;93884.91;5021644;28;20225;-63
2022/04/10 05:34:38;;;;;;;20.13;18.05;;;;;;;9.90;59.46;93894.81;5034497;28;20232;-65
2022/04/10 05:37:03;;;;;;;20.00;18.15;;;;;;;10.12;58.78;93895.78;5035009;28;20733;-61
2022/04/10 05:39:29;;;;;;;19.42;17.52;;;;;;;10.25;58.63;93897.84;5034491;28;20306;-61
2022/04/10 05:41:54;;;;;;;18.13;16.30;;;;;;;10.14;57.76;93914.03;5041147;28;20218;-66
2022/04/10 05:44:20;;;;;;;19.40;17.50;;;;;;;10.14;58.58;93909.56;5042563;28;20228;-67
2022/04/10 05:46:45;;;;;;;17.95;16.15;;;;;;;10.31;57.91;93917.34;5032235;28;20226;-66
2022/04/10 05:49:10;;;;;;;17.83;15.95;;;;;;;10.50;57.40;93930.00;5038984;28;20228;-65
2022/04/10 05:51:36;;;;;;;17.50;15.70;;;;;;;10.47;56.19;93927.72;5038524;28;20228;-67
2022/04/10 05:54:01;;;;;;;16.77;15.27;;;;;;;10.44;56.56;93919.38;5040772;28;20216;-68
2022/04/10 05:56:27;;;;;;;17.17;15.57;;;;;;;10.40;56.15;93934.69;5036078;28;20268;-68
2022/04/10 05:58:52;;;;;;;16.08;14.57;;;;;;;10.35;56.05;93932.59;5036364;28;20559;-67
2022/04/10 06:01:18;;;;;;;17.23;15.50;;;;;;;10.10;56.83;93928.47;5031625;28;20246;-69
2022/04/10 06:03:43;;;;;;;16.35;14.85;;;;;;;10.11;56.85;93938.00;5023371;28;20405;-67
2022/04/10 06:06:09;;;;;;;16.42;14.77;;;;;;;10.13;56.48;93941.25;5023465;28;20207;-68
2022/04/10 06:08:34;;;;;;;15.52;13.98;;;;;;;9.96;56.83;93940.56;5018962;28;20210;-67
2022/04/10 06:10:59;;;;;;;15.77;14.38;;;;;;;9.93;56.46;93951.41;5033050;28;20325;-66
2022/04/10 06:13:25;;;;;;;15.18;13.88;;;;;;;9.80;56.58;93951.97;5038483;28;20249;-66
2022/04/10 06:15:51;;;;;;;14.93;13.52;;;;;;;9.78;57.07;93947.91;5036777;28;20247;-66
2022/04/10 06:18:16;;;;;;;14.35;13.05;;;;;;;9.76;57.21;93955.16;5042662;28;20304;-66
2022/04/10 06:20:42;;;;;;;13.00;11.75;;;;;;;9.44;57.36;93942.00;5045063;28;20256;-65
2022/04/10 06:23:07;;;;;;;12.98;11.68;;;;;;;9.38;58.02;93947.94;5040432;28;20328;-68
2022/04/10 06:25:33;;;;;;;13.27;12.05;;;;;;;9.43;58.31;93955.28;5035570;28;20299;-66
2022/04/10 06:27:58;;;;;;;12.07;10.98;;;;;;;9.34;58.36;93949.25;5040347;28;20253;-66
2022/04/10 06:30:24;;;;;;;12.32;11.20;;;;;;;9.19;58.84;93954.38;5038190;28;20213;-66
2022/04/10 06:32:51;;;;;;;12.13;10.93;;;;;;;9.24;58.60;93952.06;5039237;28;20228;-65
2022/04/10 06:35:16;;;;;;;11.38;10.27;;;;;;;9.20;58.88;93949.97;5022115;28;20313;-66
2022/04/10 06:37:43;;;;;;;11.60;10.50;;;;;;;9.32;58.49;93947.78;5029618;28;20309;-65
2022/04/10 06:40:08;;;;;;;10.48;9.57;;;;;;;9.01;59.84;93938.91;5016623;28;20229;-67
2022/04/10 06:42:34;;;;;;;9.85;8.85;;;;;;;9.16;58.37;93952.09;5017705;28;20226;-64
2022/04/10 06:45:00;;;;;;;9.80;8.97;;;;;;;9.34;58.46;93951.06;5025575;28;20202;-65
2022/04/10 06:47:27;;;;;;;8.82;7.97;;;;;;;9.13;57.96;93951.63;5018310;28;20223;-66
2022/04/10 06:49:53;;;;;;;7.80;7.10;;;;;;;9.12;58.58;93945.56;5016909;28;20230;-65
2022/04/10 06:52:19;;;;;;;8.53;7.73;;;;;;;9.45;58.97;93955.94;5018388;28;20226;-65
2022/04/10 06:54:44;;;;;;;8.38;7.57;;;;;;;9.45;57.37;93961.19;5024134;28;20284;-66
2022/04/10 06:57:10;;;;;;;7.35;6.72;;;;;;;9.26;57.87;93965.84;5037779;28;20211;-65
2022/04/10 06:59:35;;;;;;;8.15;7.30;;;;;;;9.52;57.95;93961.34;5036623;28;20214;-66
2022/04/10 07:02:01;;;;;;;7.78;7.07;;;;;;;9.65;56.85;93951.91;5035451;28;20300;-66
2022/04/10 07:04:26;;;;;;;6.55;6.00;;;;;;;9.56;55.68;93973.13;5038160;28;20228;-67
2022/04/10 07:06:52;;;;;;;5.88;5.38;;;;;;;9.07;56.45;93971.50;5038776;28;20218;-66
2022/04/10 07:09:18;;;;;;;6.50;5.80;;;;;;;8.92;57.18;93973.16;5029197;28;20360;-66
2022/04/10 07:11:45;;;;;;;6.20;5.60;;;;;;;8.88;57.42;93956.94;5031809;28;20202;-67
2022/04/10 07:14:11;;;;;;;5.82;5.32;;;;;;;9.07;56.81;93971.50;5035136;28;20218;-67
2022/04/10 07:16:36;;;;;;;5.77;5.27;;;;;;;8.77;57.42;93960.75;5018666;28;20270;-67
2022/04/10 07:19:02;;;;;;;5.95;5.45;;;;;;;8.93;57.41;93966.94;5018258;28;20234;-67
2022/04/10 07:24:12;;;;;;;5.40;4.95;;;;;;;8.99;57.33;93971.50;5028884;28;20259;-67
2022/04/10 07:26:37;;;;;;;4.40;4.00;;;;;;;9.16;55.72;93965.22;5032662;28;20198;-67
2022/04/10 07:29:03;;;;;;;4.53;4.13;;;;;;;9.00;56.26;93967.88;5015535;28;20222;-68
2022/04/10 07:31:29;;;;;;;4.50;4.10;;;;;;;9.03;55.57;93975.41;5012176;28;20218;-69
2022/04/10 07:33:54;;;;;;;5.27;3.90;;;;;;;8.89;55.93;93976.13;5015789;28;20215;-64
2022/04/10 07:36:20;;;;;;;4.03;3.33;;;;;;;8.87;55.37;93989.38;5027960;28;20215;-70
2022/04/10 07:38:45;;;;;;;3.90;3.60;;;;;;;8.77;55.62;93979.09;5026402;28;20209;-70
2022/04/10 07:41:11;;;;;;;4.15;3.75;;;;;;;9.02;55.39;93979.03;5027472;28;20263;-70
2022/04/10 07:43:36;;;;;;;3.80;3.50;;;;;;;9.19;54.24;93983.25;5025944;28;20221;-71
2022/04/10 07:48:46;;;;;;;3.63;3.00;;;;;;;9.22;53.16;93977.69;5037614;28;20304;-69
2022/04/10 07:51:12;;;;;;;3.77;2.97;;;;;;;9.33;53.43;93976.50;5044744;28;20230;-69
2022/04/10 07:53:37;;;;;;;3.17;2.73;;;;;;;9.30;53.58;93978.63;5041304;28;20214;-70
2022/04/10 07:56:03;;;;;;;3.53;3.07;;;;;;;9.25;53.21;93985.22;5038749;28;20221;-71
2022/04/10 07:58:28;;;;;;;2.73;2.40;;;;;;;9.18;53.59;93972.94;5037449;28;20236;-71
2022/04/10 08:00:54;;;;;;;3.23;2.80;;;;;;;9.22;53.37;93977.69;5036528;28;20249;-71
2022/04/10 08:03:19;;;;;;;2.30;2.10;;;;;;;9.34;52.58;93979.94;5038500;28;20506;-71
2022/04/10 08:05:45;;;;;;;2.50;2.30;;;;;;;8.98;53.41;93972.47;5044216;28;20206;-71
2022/04/10 08:08:11;;;;;;;2.50;1.93;;;;;;;8.77;53.53;94004.50;5020272;28;20222;-73
2022/04/10 08:10:37;;;;;;;3.87;1.80;;;;;;;8.76;53.99;93993.16;5031874;28;20320;-71
2022/04/10 08:13:03;;;;;;;3.83;1.90;;;;;;;8.79;53.72;93999.88;5037112;28;20225;-70
2022/04/10 08:15:29;;;;;;;1.60;1.50;;;;;;;8.87;52.99;93992.00;5021295;28;20229;-71
2022/04/10 08:17:56;;;;;;;1.20;1.10;;;;;;;8.74;53.02;93989.91;5034765;28;20308;-71
2022/04/10 08:20:22;;;;;;;1.60;1.50;;;;;;;8.76;52.73;94000.22;5019170;28;20277;-71
2022/04/10 08:22:49;;;;;;;1.67;1.58;;;;;;;8.89;52.31;93992.66;5038702;28;20243;-71
2022/04/10 08:25:16;;;;;;;1.38;1.27;;;;;;;8.91;51.91;93993.31;5035233;28;20237;-71
2022/04/10 08:27:42;;;;;;;1.77;1.50;;;;;;;8.84;52.00;93993.16;5038044;28;20421;-70
2022/04/10 08:30:09;;;;;;;1.90;1.23;;;;;;;8.54;52.79;94007.75;5036094;28;20263;-71
2022/04/10 08:32:39;;;;;;;1.80;1.27;;;;;;;8.51;52.90;94015.13;5038664;28;20218;-70
2022/04/10 08:35:06;;;;;;;1.30;1.20;;;;;;;8.32;52.95;94003.16;5033810;28;20309;-71
2022/04/10 08:37:33;;;;;;;1.30;1.20;;;;;;;8.22;52.88;94012.94;5035270;28;20222;-71
2022/04/10 08:39:58;;;;;;;1.23;1.13;;;;;;;8.13;53.29;94010.31;5035498;28;20210;-71
2022/04/10 08:42:24;;;;;;;1.60;0.93;;;;;;;8.12;53.05;94023.56;5036971;28;20202;-71
2022/04/10 08:44:49;;;;;;;1.20;1.10;;;;;;;7.90;53.55;94022.38;5035950;28;20236;-71
2022/04/10 08:47:20;;;;;;;1.30;1.20;;;;;;;7.90;54.06;94036.28;5015352;28;20226;-70
2022/04/10 08:49:49;;;;;;;1.93;0.93;;;;;;;7.73;53.94;94034.59;5018539;28;20241;-72
2022/04/10 08:52:19;;;;;;;3.60;0.97;;;;;;;7.71;54.52;94052.25;5032031;28;20236;-71
2022/04/10 08:54:45;;;;;;;0.83;0.83;;;;;;;7.78;54.16;94055.03;5032466;28;20304;-72
2022/04/10 08:57:11;;;;;;;1.00;0.90;;;;;;;7.34;55.90;94055.19;5042038;28;20202;-72
2022/04/10 08:59:37;;;;;;;0.97;0.90;;;;;;;7.17;57.38;94055.09;5033649;28;20279;-71
2022/04/10 09:02:03;;;;;;;1.07;0.83;;;;;;;7.24;58.08;94063.97;5038062;28;20222;-72
2022/04/10 09:04:31;;;;;;;1.20;1.10;;;;;;;7.21;58.47;94060.84;5019917;28;20223;-71
2022/04/10 09:07:14;;;;;;;0.80;0.80;;;;;;;6.84;59.71;94081.03;5022712;28;20227;-72
2022/04/10 09:09:53;;;;;;;1.03;0.93;;;;;;;6.52;60.30;94075.53;5023668;28;20289;-72
2022/04/10 09:12:19;;;;;;;0.73;0.73;;;;;;;6.40;60.55;94091.41;5032869;28;20255;-72
2022/04/10 09:14:44;;;;;;;0.90;0.90;;;;;;;6.17;60.83;94085.00;5040155;28;20210;-72
2022/04/10 09:17:17;;;;;;;0.70;0.70;;;;;;;6.00;61.20;94094.44;5043964;28;20233;-72
2022/04/10 09:19:45;;;;;;;0.90;0.90;;;;;;;5.99;60.84;94068.47;5024998;28;20280;-71
2022/04/10 09:22:37;;;;;;;1.00;0.90;;;;;;;6.23;60.71;94087.03;5023942;28;20229;-73
2022/04/10 09:25:13;;;;;;;1.10;1.00;;;;;;;6.27;60.25;94077.09;5017781;28;20229;-71
2022/04/10 09:27:47;;;;;;;1.00;1.00;;;;;;;6.28;61.14;94078.72;5038096;28;20321;-71
2022/04/10 09:30:15;;;;;;;1.43;0.87;;;;;;;6.30;60.71;94088.06;5046162;28;20199;-72
2022/04/10 09:32:42;;;;;;;1.00;0.90;;;;;;;6.14;60.98;94073.06;5041706;28;20275;-71
2022/04/10 09:35:09;;;;;;;1.10;1.00;;;;;;;6.32;60.86;94090.53;5038290;28;20230;-72
2022/04/10 09:38:01;;;;;;;1.10;1.00;;;;;;;6.47;60.40;94086.44;5038336;28;21300;-70
2022/04/10 09:40:30;;;;;;;0.80;0.80;;;;;;;6.33;60.57;94077.31;5038852;28;20222;-70
2022/04/10 09:43:07;;;;;;;1.10;1.00;;;;;;;6.22;60.97;94085.38;5037824;28;20249;-70
2022/04/10 09:45:45;;;;;;;0.80;0.80;;;;;;;6.33;60.82;94084.34;5044933;28;20221;-72
2022/04/10 09:48:24;;;;;;;0.77;0.77;;;;;;;6.37;61.03;94083.88;5035895;28;20205;-70
2022/04/10 09:50:52;;;;;;;1.10;1.00;;;;;;;6.28;61.71;94078.72;5047117;28;20206;-70
2022/04/10 09:53:21;;;;;;;0.77;0.77;;;;;;;6.25;62.37;94079.03;5039040;28;20236;-70
2022/04/10 09:55:53;;;;;;;0.80;0.80;;;;;;;6.25;61.79;94081.63;5040779;28;20275;-70
2022/04/10 09:58:20;;;;;;;1.07;0.87;;;;;;;6.22;62.31;94084.56;5040898;28;20226;-70
2022/04/10 10:00:47;;;;;;;1.27;1.13;;;;;;;6.23;62.22;94081.81;5037656;28;20232;-70
2022/04/10 10:03:14;;;;;;;0.90;0.80;;;;;;;6.15;62.79;94082.53;5042353;28;20208;-69
2022/04/10 10:05:40;;;;;;;1.00;0.90;;;;;;;6.08;62.80;94089.31;5042240;28;20221;-70
2022/04/10 10:08:06;;;;;;;1.23;1.00;;;;;;;6.23;63.49;94094.00;5039831;28;20214;-71
2022/04/10 10:10:34;;;;;;;1.07;0.97;;;;;;;6.16;63.03;94076.34;5040873;28;20233;-71
2022/04/10 10:13:02;;;;;;;1.37;0.90;;;;;;;6.12;63.77;94080.22;5039914;28;20290;-71
2022/04/10 10:15:28;;;;;;;1.20;1.10;;;;;;;6.05;64.09;94073.13;5040277;28;20248;-71
2022/04/10 10:17:54;;;;;;;0.70;0.70;;;;;;;5.84;63.85;94082.00;5037230;28;20241;-72
2022/04/10 10:20:23;;;;;;;0.80;0.80;;;;;;;6.04;64.40;94084.53;5037135;28;20252;-72
2022/04/10 10:22:50;;;;;;;0.80;0.80;;;;;;;5.86;64.18;94074.03;5036298;28;20248;-71
2022/04/10 10:25:27;;;;;;;1.03;0.93;;;;;;;6.05;64.47;94067.91;5032935;28;20262;-72
2022/04/10 10:28:08;;;;;;;0.93;0.93;;;;;;;6.17;63.95;94064.94;5018791;28;20240;-70
2022/04/10 10:30:37;;;;;;;0.93;0.90;;;;;;;6.20;64.30;94061.19;5022707;28;20230;-72
2022/04/10 10:33:22;;;;;;;0.80;0.80;;;;;;;6.15;64.66;94063.47;5022200;28;20222;-71
2022/04/10 10:36:01;;;;;;;1.10;1.00;;;;;;;6.14;64.26;94064.41;5037205;28;20218;-71
2022/04/10 10:38:31;;;;;;;1.00;0.90;;;;;;;6.16;63.82;94062.47;5022750;28;20237;-72
2022/04/10 10:41:29;;;;;;;2.27;1.20;;;;;;;6.12;64.01;94076.78;5019112;28;20222;-73
2022/04/10 10:43:55;;;;;;;1.30;1.10;;;;;;;6.05;64.26;94070.53;5010992;28;20241;-71
2022/04/10 10:46:28;;;;;;;0.97;0.90;;;;;;;6.06;63.81;94053.88;5010531;28;20235;-71
2022/04/10 10:49:23;;;;;;;0.80;0.80;;;;;;;5.99;63.86;94056.28;5020389;28;20226;-71
2022/04/10 10:51:54;;;;;;;1.93;1.13;;;;;;;6.09;64.36;94048.38;4992004;28;20226;-70
2022/04/10 10:54:34;;;;;;;2.27;1.63;;;;;;;6.15;64.18;94056.44;5019686;28;20285;-71
2022/04/10 10:57:21;;;;;;;1.30;1.20;;;;;;;6.12;64.04;94055.91;5024587;28;20297;-71
2022/04/10 10:59:50;;;;;;;1.10;1.03;;;;;;;6.13;62.84;94045.31;5003956;28;20235;-72
2022/04/10 11:02:19;;;;;;;1.17;1.07;;;;;;;6.12;63.20;94045.47;5018308;28;20262;-71
2022/04/10 11:04:45;;;;;;;1.60;1.20;;;;;;;6.23;62.96;94057.47;5010026;28;20321;-71
2022/04/10 11:07:12;;;;;;;1.73;1.30;;;;;;;6.29;62.93;94051.66;5016546;28;20226;-71
2022/04/10 11:09:59;;;;;;;1.30;1.20;;;;;;;6.13;63.34;94052.34;5010343;28;20296;-72
2022/04/10 11:12:35;;;;;;;1.17;1.07;;;;;;;6.15;62.67;94045.19;5000101;28;20271;-72
2022/04/10 11:15:19;;;;;;;1.30;1.20;;;;;;;6.26;63.65;94050.19;5007061;28;20210;-72
2022/04/10 11:17:45;;;;;;;1.20;1.10;;;;;;;6.28;62.54;94042.19;5010299;28;20265;-71
2022/04/10 11:20:14;;;;;;;1.20;1.10;;;;;;;6.05;63.20;94045.25;5023768;28;20230;-71
2022/04/10 11:22:46;;;;;;;1.13;1.03;;;;;;;6.08;63.83;94044.94;5026581;28;20312;-70
2022/04/10 11:25:12;;;;;;;1.10;1.00;;;;;;;5.95;63.54;94047.91;5004850;28;20225;-72
2022/04/10 11:27:53;;;;;;;1.00;1.00;;;;;;;5.90;64.41;94044.06;5014356;28;20229;-71
2022/04/10 11:30:28;;;;;;;1.27;1.17;;;;;;;5.82;64.10;94049.22;5035192;28;20359;-71
2022/04/10 11:32:57;;;;;;;1.20;1.10;;;;;;;5.61;64.11;94052.88;5021173;28;20210;-71
2022/04/10 11:35:28;;;;;;;1.07;1.00;;;;;;;5.72;64.17;94055.31;5022651;28;20218;-70
2022/04/10 11:37:56;;;;;;;1.20;1.13;;;;;;;5.73;64.59;94062.16;5015840;28;20218;-71
2022/04/10 11:40:25;;;;;;;1.60;1.50;;;;;;;5.79;64.36;94057.31;5014363;28;20230;-72